createdAt,value
2018-09-09T06:03:21.475Z,14.10
2018-09-09T06:05:49.686Z,12.80
2018-09-09T06:08:17.871Z,17.73
2018-09-09T06:10:50.364Z,18.27
2018-09-09T06:13:18.516Z,14.90
2018-09-09T06:15:46.707Z,15.87
2018-09-09T06:18:14.917Z,15.87
2018-09-09T06:20:43.161Z,16.70
2018-09-09T06:23:11.356Z,15.77
2018-09-09T06:25:39.546Z,13.17
2018-09-09T06:28:07.798Z,13.80
2018-09-09T06:30:35.980Z,13.53
2018-09-09T06:33:04.184Z,15.40
2018-09-09T06:35:32.394Z,12.63
2018-09-09T06:38:00.571Z,11.60
2018-09-09T06:40:28.748Z,9.13
2018-09-09T06:42:56.974Z,12.33
2018-09-09T06:45:25.122Z,11.73
2018-09-09T06:47:53.344Z,13.00
2018-09-09T06:50:21.538Z,11.50
2018-09-09T06:52:49.693Z,12.37
2018-09-09T06:55:17.926Z,10.97
2018-09-09T06:57:46.063Z,13.27
2018-09-09T07:00:14.203Z,9.97
2018-09-09T07:02:42.381Z,9.63
2018-09-09T07:05:10.575Z,13.63
2018-09-09T07:07:38.775Z,14.50
2018-09-09T07:10:07.173Z,8.70
2018-09-09T07:12:35.388Z,10.30
2018-09-09T07:15:03.614Z,11.20
2018-09-09T07:17:31.817Z,11.47
2018-09-09T07:19:59.924Z,10.90
2018-09-09T07:22:28.176Z,12.20
2018-09-09T07:24:56.352Z,8.70
2018-09-09T07:27:24.554Z,11.20
2018-09-09T07:29:52.724Z,8.73
2018-09-09T07:32:20.975Z,9.07
2018-09-09T07:34:49.153Z,10.93
2018-09-09T07:37:17.716Z,11.27
2018-09-09T07:39:45.871Z,10.33
2018-09-09T07:42:14.039Z,9.30
2018-09-09T07:44:42.212Z,6.77
2018-09-09T07:47:10.485Z,11.80
2018-09-09T07:49:38.697Z,8.30
2018-09-09T07:52:07.019Z,9.60
2018-09-09T07:54:35.193Z,9.50
2018-09-09T07:57:03.428Z,9.93
2018-09-09T07:59:31.642Z,12.00
2018-09-09T08:01:59.850Z,7.40
2018-09-09T08:04:28.072Z,9.53
2018-09-09T08:06:56.312Z,6.63
2018-09-09T08:09:24.540Z,7.10
2018-09-09T08:11:52.766Z,7.07
2018-09-09T08:14:20.945Z,7.90
2018-09-09T08:16:49.169Z,5.97
2018-09-09T08:19:17.422Z,6.83
2018-09-09T08:21:45.659Z,7.43
2018-09-09T08:24:13.871Z,7.10
2018-09-09T08:26:42.137Z,8.50
2018-09-09T08:29:10.575Z,12.10
2018-09-09T08:31:38.824Z,8.80
2018-09-09T08:34:07.028Z,8.97
2018-09-09T08:36:35.214Z,8.73
2018-09-09T08:39:04.153Z,8.30
2018-09-09T08:41:32.330Z,7.70
2018-09-09T08:44:00.536Z,9.73
2018-09-09T08:46:28.687Z,7.70
2018-09-09T08:48:56.844Z,6.57
2018-09-09T08:51:25.012Z,10.90
2018-09-09T08:53:53.182Z,11.70
2018-09-09T08:56:21.372Z,7.13
2018-09-09T08:58:49.527Z,8.80
2018-09-09T09:01:17.707Z,7.60
2018-09-09T09:03:45.937Z,7.17
2018-09-09T09:06:14.130Z,6.73
2018-09-09T09:08:42.268Z,11.10
2018-09-09T09:11:10.417Z,9.77
2018-09-09T09:13:38.658Z,7.80
2018-09-09T09:16:06.837Z,9.47
2018-09-09T09:18:35.108Z,6.70
2018-09-09T09:21:03.225Z,6.40
2018-09-09T09:23:31.462Z,6.83
2018-09-09T09:25:59.614Z,5.47
2018-09-09T09:28:27.760Z,6.97
2018-09-09T09:30:55.928Z,5.87
2018-09-09T09:33:24.133Z,6.10
2018-09-09T09:35:53.601Z,4.53
2018-09-09T09:38:22.529Z,12.20
2018-09-09T09:40:51.270Z,4.90
2018-09-09T09:43:19.392Z,4.00
2018-09-09T09:45:47.549Z,6.53
2018-09-09T09:48:15.771Z,5.27
2018-09-09T09:50:43.955Z,4.83
2018-09-09T09:53:12.222Z,5.53
2018-09-09T09:55:40.372Z,7.00
2018-09-09T09:58:08.512Z,5.63
2018-09-09T10:00:42.000Z,6.80
2018-09-09T10:03:10.180Z,8.13
2018-09-09T10:05:38.342Z,6.20
2018-09-09T10:08:06.550Z,8.17
2018-09-09T10:10:34.736Z,5.57
2018-09-09T10:13:02.932Z,5.53
2018-09-09T10:15:31.118Z,5.30
2018-09-09T10:17:59.299Z,5.03
2018-09-09T10:20:27.517Z,4.70
2018-09-09T10:22:55.678Z,4.40
2018-09-09T10:25:23.872Z,6.30
2018-09-09T10:27:52.052Z,4.07
2018-09-09T10:30:20.255Z,4.60
2018-09-09T10:32:48.451Z,5.30
2018-09-09T10:35:16.628Z,4.83
2018-09-09T10:37:44.768Z,5.20
2018-09-09T10:40:12.987Z,5.37
2018-09-09T10:42:41.138Z,5.00
2018-09-09T10:45:09.310Z,4.90
2018-09-09T10:47:37.464Z,4.80
2018-09-09T10:50:05.745Z,4.87
2018-09-09T10:52:33.940Z,7.30
2018-09-09T10:55:02.137Z,4.40
2018-09-09T10:57:30.333Z,5.03
2018-09-09T10:59:58.478Z,4.97
2018-09-09T11:02:26.657Z,4.33
2018-09-09T11:04:54.861Z,6.23
2018-09-09T11:07:23.089Z,6.17
2018-09-09T11:09:51.320Z,4.87
2018-09-09T11:12:23.853Z,4.83
2018-09-09T11:14:52.056Z,4.83
2018-09-09T11:17:20.246Z,4.77
2018-09-09T11:19:48.425Z,7.73
2018-09-09T11:22:16.632Z,6.43
2018-09-09T11:24:44.893Z,5.97
2018-09-09T11:27:13.024Z,6.33
2018-09-09T11:29:41.217Z,6.40
2018-09-09T11:32:09.404Z,5.30
2018-09-09T11:34:37.617Z,6.10
2018-09-09T11:37:05.885Z,5.73
2018-09-09T11:39:34.104Z,5.67
2018-09-09T11:42:02.286Z,6.43
2018-09-09T11:44:30.452Z,5.73
2018-09-09T11:46:58.680Z,7.07
2018-09-09T11:49:26.892Z,7.17
2018-09-09T11:51:55.136Z,5.77
2018-09-09T11:54:23.360Z,8.30
2018-09-09T11:56:51.572Z,5.47
2018-09-09T11:59:19.768Z,5.83
2018-09-09T12:01:48.043Z,5.77
2018-09-09T12:04:16.213Z,4.10
2018-09-09T12:06:44.517Z,4.40
2018-09-09T12:09:12.804Z,6.10
2018-09-09T12:11:41.024Z,5.80
2018-09-09T12:14:09.190Z,5.80
2018-09-09T12:16:37.672Z,4.50
2018-09-09T12:19:05.904Z,5.87
2018-09-09T12:21:34.157Z,4.60
2018-09-09T12:24:02.325Z,5.37
2018-09-09T12:26:30.467Z,7.47
2018-09-09T12:28:58.649Z,5.27
2018-09-09T12:31:26.813Z,6.90
2018-09-09T12:33:54.944Z,6.53
2018-09-09T12:36:23.547Z,8.03
2018-09-09T12:38:51.736Z,7.27
2018-09-09T12:41:19.927Z,5.63
2018-09-09T12:43:53.642Z,5.27
2018-09-09T12:46:27.210Z,8.53
2018-09-09T12:49:02.868Z,4.50
2018-09-09T12:51:31.201Z,4.30
2018-09-09T12:53:59.484Z,8.03
2018-09-09T12:56:27.813Z,4.17
2018-09-09T12:58:56.337Z,4.70
2018-09-09T13:01:24.519Z,4.33
2018-09-09T13:03:52.673Z,5.07
2018-09-09T13:06:20.856Z,5.73
2018-09-09T13:08:49.087Z,5.37
2018-09-09T13:11:17.328Z,4.80
2018-09-09T13:13:45.473Z,5.60
2018-09-09T13:16:13.664Z,4.40
2018-09-09T13:18:41.877Z,5.83
2018-09-09T13:21:10.100Z,13.70
2018-09-09T13:23:38.267Z,6.30
2018-09-09T13:26:06.470Z,5.90
2018-09-09T13:28:34.691Z,8.10
2018-09-09T13:31:02.890Z,6.17
2018-09-09T13:33:31.098Z,4.87
2018-09-09T13:35:59.310Z,6.77
2018-09-09T13:38:27.489Z,4.23
2018-09-09T13:40:55.672Z,4.00
2018-09-09T13:43:23.881Z,4.43
2018-09-09T13:45:52.123Z,6.60
2018-09-09T13:48:20.333Z,5.30
2018-09-09T13:50:48.503Z,6.00
2018-09-09T13:53:16.702Z,5.70
2018-09-09T13:55:44.888Z,7.07
2018-09-09T13:58:13.082Z,6.23
2018-09-09T14:00:41.289Z,4.97
2018-09-09T14:03:09.508Z,7.23
2018-09-09T14:05:38.294Z,6.40
2018-09-09T14:08:06.474Z,8.97
2018-09-09T14:10:34.644Z,5.20
2018-09-09T14:13:02.833Z,5.87
2018-09-09T14:15:31.064Z,6.97
2018-09-09T14:17:59.284Z,5.60
2018-09-09T14:20:27.420Z,5.50
2018-09-09T14:22:55.588Z,6.97
2018-09-09T14:25:23.773Z,5.90
2018-09-09T14:27:52.064Z,4.77
2018-09-09T14:30:20.336Z,6.80
2018-09-09T14:32:48.542Z,5.70
2018-09-09T14:35:17.767Z,5.70
2018-09-09T14:37:45.918Z,6.17
2018-09-09T14:40:14.090Z,5.30
2018-09-09T14:42:42.255Z,6.50
2018-09-09T14:45:10.376Z,6.80
2018-09-09T14:47:38.531Z,5.60
2018-09-09T14:50:06.713Z,16.30
2018-09-09T14:52:34.930Z,7.43
2018-09-09T14:55:03.281Z,5.80
2018-09-09T14:57:31.456Z,5.73
2018-09-09T14:59:59.624Z,10.57
2018-09-09T15:02:27.788Z,5.50
2018-09-09T15:04:55.942Z,6.83
2018-09-09T15:07:24.096Z,9.30
2018-09-09T15:09:52.293Z,6.53
2018-09-09T15:12:20.463Z,6.13
2018-09-09T15:14:48.628Z,6.47
2018-09-09T15:17:16.806Z,5.03
2018-09-09T15:19:44.985Z,6.73
2018-09-09T15:22:13.192Z,5.87
2018-09-09T15:24:41.355Z,7.30
2018-09-09T15:27:16.403Z,6.40
2018-09-09T15:29:44.553Z,6.57
2018-09-09T15:32:12.733Z,5.30
2018-09-09T15:34:40.897Z,7.40
2018-09-09T15:37:09.059Z,6.43
2018-09-09T15:39:37.208Z,8.73
2018-09-09T15:42:05.397Z,6.10
2018-09-09T15:44:33.655Z,8.13
2018-09-09T15:47:01.852Z,5.90
2018-09-09T15:49:30.039Z,8.37
2018-09-09T15:51:58.268Z,6.87
2018-09-09T15:54:26.392Z,6.33
2018-09-09T15:56:54.560Z,9.90
2018-09-09T15:59:22.737Z,7.60
2018-09-09T16:01:50.912Z,5.20
2018-09-09T16:04:19.092Z,6.53
2018-09-09T16:06:47.296Z,6.17
2018-09-09T16:09:15.581Z,7.93
2018-09-09T16:11:43.802Z,7.17
2018-09-09T16:14:11.945Z,7.10
2018-09-09T16:16:40.144Z,7.50
2018-09-09T16:19:08.323Z,8.40
2018-09-09T16:21:36.488Z,6.43
2018-09-09T16:24:04.673Z,7.13
2018-09-09T16:26:33.887Z,6.70
2018-09-09T16:29:02.054Z,8.13
2018-09-09T16:31:30.191Z,9.13
2018-09-09T16:33:58.419Z,7.77
2018-09-09T16:36:26.557Z,6.20
2018-09-09T16:38:54.744Z,6.60
2018-09-09T16:41:22.930Z,8.07
2018-09-09T16:43:51.258Z,6.37
2018-09-09T16:46:19.384Z,6.80
2018-09-09T16:48:47.559Z,11.93
2018-09-09T16:51:15.702Z,8.93
2018-09-09T16:53:43.869Z,13.70
2018-09-09T16:56:12.016Z,12.33
2018-09-09T16:58:40.194Z,10.77
2018-09-09T17:01:08.499Z,14.87
2018-09-09T17:03:36.829Z,12.90
2018-09-09T17:06:04.942Z,8.57
2018-09-09T17:08:33.122Z,11.70
2018-09-09T17:11:01.281Z,8.53
2018-09-09T17:13:29.399Z,8.33
2018-09-09T17:15:57.541Z,8.77
2018-09-09T17:18:25.674Z,7.00
2018-09-09T17:20:53.989Z,8.20
2018-09-09T17:23:22.100Z,9.07
2018-09-09T17:25:50.276Z,7.43
2018-09-09T17:28:23.117Z,9.50
2018-09-09T17:30:51.481Z,7.30
2018-09-09T17:33:19.664Z,7.30
2018-09-09T17:35:47.864Z,12.33
2018-09-09T17:38:16.024Z,9.90
2018-09-09T17:40:44.192Z,8.50
2018-09-09T17:43:12.344Z,12.37
2018-09-09T17:45:40.512Z,11.63
2018-09-09T17:48:09.005Z,9.87
2018-09-09T17:50:37.319Z,9.10
2018-09-09T17:53:05.524Z,8.60
2018-09-09T17:55:33.695Z,11.60
2018-09-09T17:58:01.842Z,11.53
2018-09-09T18:00:30.080Z,9.20
2018-09-09T18:02:58.244Z,8.97
2018-09-09T18:05:26.448Z,12.40
2018-09-09T18:07:54.616Z,16.13
2018-09-09T18:10:22.797Z,11.10
2018-09-09T18:12:50.961Z,13.50
2018-09-09T18:15:19.170Z,9.23
2018-09-09T18:17:47.324Z,8.80
2018-09-09T18:20:15.580Z,12.53
2018-09-09T18:22:43.712Z,10.17
2018-09-09T18:25:11.864Z,14.10
2018-09-09T18:27:40.023Z,11.30
2018-09-09T18:30:08.175Z,8.80
2018-09-09T18:32:36.352Z,10.73
2018-09-09T18:35:04.561Z,9.50
2018-09-09T18:37:32.712Z,10.00
2018-09-09T18:40:00.887Z,11.97
2018-09-09T18:42:29.258Z,8.87
2018-09-09T18:44:57.509Z,11.73
2018-09-09T18:47:25.625Z,10.63
2018-09-09T18:49:53.798Z,8.37
2018-09-09T18:52:21.977Z,9.57
2018-09-09T18:54:50.130Z,9.17
2018-09-09T18:57:18.321Z,10.17
2018-09-09T18:59:46.456Z,13.47
2018-09-09T19:02:14.630Z,11.80
2018-09-09T19:04:42.780Z,11.40
2018-09-09T19:10:02.246Z,11.90
2018-09-09T19:12:30.393Z,20.47
2018-09-09T19:14:58.551Z,17.77
2018-09-09T19:17:26.743Z,15.67
2018-09-09T19:19:54.876Z,11.53
2018-09-09T19:22:23.059Z,11.03
2018-09-09T19:25:03.454Z,9.93
2018-09-09T19:27:31.657Z,13.10
2018-09-09T19:29:59.834Z,14.63
2018-09-09T19:32:28.016Z,12.37
2018-09-09T19:34:56.198Z,11.27
2018-09-09T19:37:27.561Z,12.10
2018-09-09T19:39:55.721Z,13.00
2018-09-09T19:42:23.868Z,9.50
2018-09-09T19:44:52.020Z,13.20
2018-09-09T19:47:20.188Z,13.37
2018-09-09T19:49:48.360Z,20.70
2018-09-09T19:52:16.543Z,11.03
2018-09-09T19:54:44.712Z,10.30
2018-09-09T19:57:12.920Z,12.80
2018-09-09T19:59:41.095Z,23.50
2018-09-09T20:02:09.241Z,16.27
2018-09-09T20:04:37.424Z,11.70
2018-09-09T20:07:05.570Z,9.87
2018-09-09T20:09:40.322Z,11.30
2018-09-09T20:12:08.496Z,11.40
2018-09-09T20:14:36.628Z,11.57
2018-09-09T20:17:04.846Z,12.10
2018-09-09T20:19:33.009Z,10.73
2018-09-09T20:22:01.195Z,12.77
2018-09-09T20:24:29.372Z,14.10
2018-09-09T20:26:57.547Z,13.40
2018-09-09T20:29:25.692Z,12.10
2018-09-09T20:31:53.925Z,10.03
2018-09-09T20:34:22.104Z,10.13
2018-09-09T20:36:50.262Z,13.03
2018-09-09T20:39:18.414Z,12.33
2018-09-09T20:41:46.566Z,11.67
2018-09-09T20:44:14.734Z,11.80
2018-09-09T20:46:42.912Z,11.40
2018-09-09T20:49:11.076Z,17.07
2018-09-09T20:51:39.243Z,12.10
2018-09-09T20:54:07.396Z,12.80
2018-09-09T20:56:35.534Z,11.70
2018-09-09T20:59:03.705Z,9.40
2018-09-09T21:01:31.868Z,10.50
2018-09-09T21:04:00.024Z,12.60
2018-09-09T21:06:28.167Z,11.63
2018-09-09T21:08:56.339Z,11.53
2018-09-09T21:11:24.496Z,13.47
2018-09-09T21:13:52.692Z,13.90
2018-09-09T21:16:20.861Z,10.20
2018-09-09T21:18:49.048Z,12.50
2018-09-09T21:21:17.215Z,15.90
2018-09-09T21:23:45.424Z,12.17
2018-09-09T21:26:13.626Z,10.63
2018-09-09T21:28:41.805Z,11.30
2018-09-09T21:31:09.961Z,10.03
2018-09-09T21:33:38.132Z,9.53
2018-09-09T21:36:06.532Z,16.73
2018-09-09T21:38:34.690Z,11.77
2018-09-09T21:41:02.864Z,11.27
2018-09-09T21:43:31.044Z,15.50
2018-09-09T21:46:00.048Z,11.63
2018-09-09T21:48:28.242Z,10.80
2018-09-09T21:50:56.435Z,12.17
2018-09-09T21:53:24.600Z,13.10
2018-09-09T21:55:52.906Z,13.17
2018-09-09T21:58:21.230Z,10.00
2018-09-09T22:00:54.628Z,11.80
